createdAt,value
2023-11-24T00:01:40.700Z,98.65
2023-11-24T00:04:07.657Z,98.30
2023-11-24T00:06:34.361Z,98.31
2023-11-24T00:09:00.975Z,98.29
2023-11-24T00:11:27.773Z,97.91
2023-11-24T00:13:54.900Z,97.32
2023-11-24T00:16:22.435Z,96.90
2023-11-24T00:18:49.383Z,96.90
2023-11-24T00:21:16.645Z,96.63
2023-11-24T00:23:43.230Z,96.59
2023-11-24T00:26:10.230Z,95.98
2023-11-24T00:28:37.828Z,96.22
2023-11-24T00:31:06.818Z,95.58
2023-11-24T00:33:34.265Z,94.69
2023-11-24T00:36:02.089Z,95.39
2023-11-24T00:38:29.125Z,94.37
2023-11-24T00:40:55.922Z,94.21
2023-11-24T00:43:23.460Z,93.80
2023-11-24T00:45:50.224Z,94.32
2023-11-24T00:48:17.450Z,94.73
2023-11-24T00:50:43.962Z,94.16
2023-11-24T00:53:10.511Z,94.19
2023-11-24T00:55:37.054Z,94.14
2023-11-24T00:58:03.558Z,92.46
2023-11-24T01:00:30.192Z,92.89
2023-11-24T01:02:56.839Z,92.31
2023-11-24T01:05:23.386Z,91.83
2023-11-24T01:07:50.196Z,92.03
2023-11-24T01:10:16.882Z,91.85
2023-11-24T01:12:44.350Z,91.32
2023-11-24T01:15:11.131Z,91.35
2023-11-24T01:17:37.743Z,91.02
2023-11-24T01:20:05.006Z,91.29
2023-11-24T01:22:31.670Z,92.34
2023-11-24T01:24:58.286Z,93.11
2023-11-24T01:27:24.894Z,94.33
2023-11-24T01:29:51.605Z,95.15
2023-11-24T01:32:18.292Z,95.97
2023-11-24T01:34:45.109Z,96.31
2023-11-24T01:37:11.820Z,96.62
2023-11-24T01:39:38.468Z,96.62
2023-11-24T01:42:05.999Z,97.01
2023-11-24T01:44:33.138Z,97.42
2023-11-24T01:46:59.727Z,97.36
2023-11-24T01:49:28.497Z,97.76
2023-11-24T01:51:56.289Z,97.76
2023-11-24T01:54:25.814Z,97.50
2023-11-24T01:56:54.447Z,97.44
2023-11-24T01:59:24.129Z,96.64
2023-11-24T02:01:50.960Z,96.13
2023-11-24T02:04:17.596Z,96.38
2023-11-24T02:06:44.835Z,96.16
2023-11-24T02:09:11.860Z,96.58
2023-11-24T02:11:38.603Z,96.68
2023-11-24T02:14:05.108Z,96.82
2023-11-24T02:16:31.657Z,96.99
2023-11-24T02:18:58.294Z,96.69
2023-11-24T02:21:24.876Z,96.65
2023-11-24T02:23:51.921Z,97.00
2023-11-24T02:26:20.072Z,96.80
2023-11-24T02:28:46.605Z,96.54
2023-11-24T02:31:13.352Z,96.70
2023-11-24T02:33:42.114Z,97.04
2023-11-24T02:36:18.089Z,97.03
2023-11-24T02:38:50.644Z,97.32
2023-11-24T02:41:17.960Z,97.41
2023-11-24T02:43:44.609Z,97.66
2023-11-24T02:46:17.788Z,97.54
2023-11-24T02:48:45.303Z,97.47
2023-11-24T02:51:12.500Z,97.66
2023-11-24T02:53:40.221Z,97.75
2023-11-24T02:56:07.508Z,97.85
2023-11-24T02:58:34.244Z,97.83
2023-11-24T03:01:01.379Z,97.63
2023-11-24T03:03:29.693Z,97.52
2023-11-24T03:05:56.993Z,97.68
2023-11-24T03:08:25.032Z,97.81
2023-11-24T03:10:51.904Z,97.53
2023-11-24T03:13:20.807Z,97.35
2023-11-24T03:15:47.405Z,97.50
2023-11-24T03:18:14.729Z,97.52
2023-11-24T03:20:42.208Z,97.69
2023-11-24T03:23:09.080Z,97.70
2023-11-24T03:25:35.804Z,97.18
2023-11-24T03:28:02.519Z,97.33
2023-11-24T03:30:29.238Z,96.12
2023-11-24T03:32:55.867Z,96.86
2023-11-24T03:35:24.116Z,97.17
2023-11-24T03:37:50.767Z,97.23
2023-11-24T03:40:17.585Z,97.41
2023-11-24T03:42:44.282Z,97.28
2023-11-24T03:45:11.288Z,97.35
2023-11-24T03:47:39.929Z,97.20
2023-11-24T03:50:06.967Z,97.13
2023-11-24T03:52:34.171Z,97.30
2023-11-24T03:55:01.509Z,97.51
2023-11-24T03:57:28.265Z,97.75
2023-11-24T03:59:54.794Z,97.88
2023-11-24T04:02:21.316Z,97.93
2023-11-24T04:04:47.894Z,98.01
2023-11-24T04:07:15.245Z,97.84
2023-11-24T04:09:42.827Z,97.99
2023-11-24T04:12:09.591Z,98.24
2023-11-24T04:14:36.651Z,98.37
2023-11-24T04:17:03.509Z,98.31
2023-11-24T04:19:30.000Z,98.23
2023-11-24T04:21:56.645Z,98.05
2023-11-24T04:24:24.590Z,97.68
2023-11-24T04:26:51.358Z,96.96
2023-11-24T04:29:17.865Z,97.39
2023-11-24T04:31:45.433Z,97.16
2023-11-24T04:34:12.361Z,96.37
2023-11-24T04:36:39.064Z,96.47
2023-11-24T04:39:05.825Z,96.17
2023-11-24T04:41:32.861Z,96.43
2023-11-24T04:43:59.464Z,96.90
2023-11-24T04:46:26.206Z,97.16
2023-11-24T04:48:53.124Z,97.38
2023-11-24T04:51:19.871Z,97.68
2023-11-24T04:53:46.595Z,97.42
2023-11-24T04:56:13.255Z,97.64
2023-11-24T04:58:39.938Z,97.47
2023-11-24T05:01:06.949Z,97.77
2023-11-24T05:03:33.731Z,97.94
2023-11-24T05:06:00.905Z,98.04
2023-11-24T05:08:27.522Z,98.37
2023-11-24T05:10:54.155Z,98.62
2023-11-24T05:13:20.763Z,98.54
2023-11-24T05:15:47.574Z,98.45
2023-11-24T05:18:14.352Z,98.53
2023-11-24T05:20:40.875Z,98.77
2023-11-24T05:23:08.028Z,98.87
2023-11-24T05:25:34.616Z,98.97
2023-11-24T05:28:01.316Z,98.64
2023-11-24T05:30:27.905Z,98.46
2023-11-24T05:32:54.541Z,98.67
2023-11-24T05:35:21.076Z,98.56
2023-11-24T05:37:47.671Z,97.94
2023-11-24T05:40:14.361Z,97.97
2023-11-24T05:42:41.019Z,97.97
2023-11-24T05:45:09.536Z,97.69
2023-11-24T05:47:37.003Z,97.28
2023-11-24T05:50:07.001Z,97.39
2023-11-24T05:52:34.875Z,97.33
2023-11-24T05:55:02.380Z,97.63
2023-11-24T05:57:29.433Z,97.68
2023-11-24T05:59:56.496Z,97.72
2023-11-24T06:02:23.123Z,97.75
2023-11-24T06:04:50.378Z,97.34
2023-11-24T06:07:17.968Z,97.46
2023-11-24T06:09:45.234Z,97.01
2023-11-24T06:12:12.101Z,96.71
2023-11-24T06:14:39.402Z,96.81
2023-11-24T06:17:09.949Z,97.05
2023-11-24T06:19:36.621Z,96.98
2023-11-24T06:22:03.812Z,96.91
2023-11-24T06:24:30.605Z,97.04
2023-11-24T06:26:57.439Z,96.55
2023-11-24T06:29:25.638Z,97.06
2023-11-24T06:31:52.234Z,96.77
2023-11-24T06:34:19.012Z,96.86
2023-11-24T06:36:46.683Z,97.23
2023-11-24T06:39:13.786Z,96.84
2023-11-24T06:41:40.434Z,96.85
2023-11-24T06:44:07.404Z,96.69
2023-11-24T06:46:34.891Z,96.16
2023-11-24T06:49:01.665Z,95.36
2023-11-24T06:51:28.313Z,95.72
2023-11-24T06:53:55.356Z,95.48
2023-11-24T06:56:22.388Z,95.06
2023-11-24T06:58:49.198Z,94.80
2023-11-24T07:01:27.621Z,94.99
2023-11-24T07:03:54.230Z,94.75
2023-11-24T07:06:20.901Z,94.65
2023-11-24T07:08:47.603Z,94.68
2023-11-24T07:11:14.204Z,94.80
2023-11-24T07:13:40.755Z,94.59
2023-11-24T07:16:07.693Z,93.53
2023-11-24T07:18:34.523Z,93.85
2023-11-24T07:21:01.181Z,94.15
2023-11-24T07:23:27.774Z,94.12
2023-11-24T07:25:54.444Z,93.88
2023-11-24T07:28:21.248Z,93.19
2023-11-24T07:30:47.872Z,93.50
2023-11-24T07:33:14.511Z,93.28
2023-11-24T07:35:41.202Z,93.15
2023-11-24T07:38:08.114Z,93.30
2023-11-24T07:40:34.611Z,92.54
2023-11-24T07:43:01.227Z,92.53
2023-11-24T07:45:27.845Z,92.53
2023-11-24T07:47:54.400Z,92.63
2023-11-24T07:50:20.958Z,91.89
2023-11-24T07:52:47.853Z,91.14
2023-11-24T07:55:14.754Z,91.79
2023-11-24T07:57:44.663Z,91.10
2023-11-24T08:00:13.953Z,90.42
2023-11-24T08:02:41.490Z,91.69
2023-11-24T08:05:09.425Z,90.77
2023-11-24T08:07:36.391Z,91.06
2023-11-24T08:10:03.157Z,91.56
2023-11-24T08:12:29.738Z,91.51
2023-11-24T08:14:59.496Z,91.19
2023-11-24T08:17:26.118Z,90.21
2023-11-24T08:19:53.541Z,91.49
2023-11-24T08:22:20.131Z,90.55
2023-11-24T08:24:46.716Z,91.37
2023-11-24T08:27:13.339Z,91.21
2023-11-24T08:29:39.839Z,91.44
2023-11-24T08:32:07.593Z,90.92
2023-11-24T08:34:34.363Z,89.88
2023-11-24T08:37:03.462Z,91.02
2023-11-24T08:39:30.140Z,90.10
2023-11-24T08:41:56.742Z,89.84
2023-11-24T08:44:25.811Z,90.03
2023-11-24T08:46:55.371Z,88.41
2023-11-24T08:49:23.168Z,88.76
2023-11-24T08:51:49.760Z,88.87
2023-11-24T08:54:16.510Z,88.89
2023-11-24T08:56:43.061Z,89.45
2023-11-24T08:59:10.717Z,89.74
2023-11-24T09:01:38.120Z,89.28
2023-11-24T09:04:05.479Z,88.87
2023-11-24T09:06:38.998Z,89.27
2023-11-24T09:09:10.034Z,89.00
2023-11-24T09:11:36.628Z,88.87
2023-11-24T09:14:06.655Z,88.94
2023-11-24T09:16:34.061Z,88.48
2023-11-24T09:19:01.269Z,89.33
2023-11-24T09:21:32.036Z,88.51
2023-11-24T09:23:58.674Z,88.51
2023-11-24T09:26:25.467Z,88.82
2023-11-24T09:28:52.373Z,87.87
2023-11-24T09:31:19.020Z,88.72
2023-11-24T09:33:45.654Z,88.95
2023-11-24T09:36:13.368Z,87.85
2023-11-24T09:38:40.874Z,88.05
2023-11-24T09:41:16.034Z,88.98
2023-11-24T09:43:42.905Z,88.89
2023-11-24T09:46:11.706Z,88.85
2023-11-24T09:48:42.496Z,89.16
2023-11-24T09:51:11.573Z,88.60
2023-11-24T09:53:40.458Z,87.54
2023-11-24T09:56:08.672Z,86.80
2023-11-24T09:58:35.423Z,87.39
2023-11-24T10:01:20.506Z,87.85
2023-11-24T10:03:50.441Z,86.97
2023-11-24T10:06:17.444Z,87.11
2023-11-24T10:08:46.850Z,86.34
2023-11-24T10:11:14.559Z,85.43
2023-11-24T10:13:47.707Z,85.18
2023-11-24T10:16:15.967Z,83.43
2023-11-24T10:18:42.648Z,84.19
2023-11-24T10:21:23.465Z,84.96
2023-11-24T10:23:58.326Z,83.99
2023-11-24T10:26:26.734Z,83.12
2023-11-24T10:28:53.774Z,83.14
2023-11-24T10:31:21.006Z,81.96
2023-11-24T10:33:47.902Z,81.64
2023-11-24T10:36:17.689Z,84.07
2023-11-24T10:38:47.673Z,83.48
2023-11-24T10:41:24.414Z,81.76
2023-11-24T10:43:51.796Z,83.12
2023-11-24T10:46:23.844Z,83.22
2023-11-24T10:49:07.154Z,82.46
2023-11-24T10:51:53.896Z,81.94
2023-11-24T10:54:26.860Z,82.54
2023-11-24T10:56:58.811Z,80.65
2023-11-24T10:59:29.005Z,81.59
2023-11-24T11:01:58.936Z,82.26
2023-11-24T11:04:28.313Z,82.37
2023-11-24T11:07:19.684Z,81.45
2023-11-24T11:09:52.465Z,81.14
2023-11-24T11:12:35.262Z,81.29
2023-11-24T11:15:02.452Z,81.11
2023-11-24T11:17:29.030Z,80.40
2023-11-24T11:20:00.604Z,80.96
2023-11-24T11:22:33.988Z,81.56
2023-11-24T11:25:37.880Z,80.35
2023-11-24T11:28:20.428Z,79.51
2023-11-24T11:30:48.139Z,79.66
2023-11-24T11:33:15.174Z,81.45
2023-11-24T11:35:50.023Z,80.32
2023-11-24T11:38:34.678Z,80.88
2023-11-24T11:41:01.607Z,80.04
2023-11-24T11:43:29.169Z,79.50
2023-11-24T11:45:58.463Z,78.83
2023-11-24T11:48:30.109Z,78.44
2023-11-24T11:50:58.729Z,80.21
2023-11-24T11:53:26.997Z,79.76
2023-11-24T11:55:57.928Z,78.91
2023-11-24T11:58:26.110Z,77.92
2023-11-24T12:00:54.523Z,78.64
2023-11-24T12:03:24.131Z,77.16
2023-11-24T12:05:53.645Z,76.63
2023-11-24T12:08:22.908Z,76.89
2023-11-24T12:10:49.740Z,78.06
2023-11-24T12:13:16.602Z,77.10
2023-11-24T12:15:46.103Z,77.33
2023-11-24T12:18:16.532Z,78.31
2023-11-24T12:20:45.347Z,79.53
2023-11-24T12:23:14.478Z,79.05
2023-11-24T12:25:42.728Z,79.00
2023-11-24T12:28:10.825Z,79.26
2023-11-24T12:30:43.348Z,79.39
2023-11-24T12:33:15.347Z,79.72
2023-11-24T12:35:52.972Z,80.00
2023-11-24T12:38:20.592Z,80.21
2023-11-24T12:40:49.023Z,81.60
2023-11-24T12:43:16.911Z,80.29
2023-11-24T12:45:44.053Z,80.97
2023-11-24T12:48:23.941Z,80.80
2023-11-24T12:50:53.049Z,81.08
2023-11-24T12:53:20.029Z,81.31
2023-11-24T12:55:46.795Z,81.00
2023-11-24T12:58:13.634Z,81.27
2023-11-24T13:00:40.485Z,82.58
2023-11-24T13:03:08.171Z,82.32
2023-11-24T13:05:35.366Z,82.79
2023-11-24T13:08:02.354Z,83.87
2023-11-24T13:10:31.427Z,84.51
2023-11-24T13:12:59.564Z,84.92
2023-11-24T13:15:26.669Z,85.35
2023-11-24T13:17:54.640Z,84.75
2023-11-24T13:20:22.156Z,85.36
2023-11-24T13:22:49.676Z,85.16
2023-11-24T13:25:17.474Z,85.15
2023-11-24T13:27:44.422Z,85.53
2023-11-24T13:30:12.638Z,85.64
2023-11-24T13:32:43.345Z,87.19
2023-11-24T13:35:16.513Z,86.27
2023-11-24T13:37:45.572Z,86.55
2023-11-24T13:40:13.711Z,86.56
2023-11-24T13:42:40.545Z,87.21
2023-11-24T13:45:07.621Z,87.57
2023-11-24T13:47:36.479Z,88.27
2023-11-24T13:50:05.880Z,88.65
2023-11-24T13:52:35.572Z,88.51
2023-11-24T13:55:02.298Z,88.67
2023-11-24T13:57:28.894Z,88.88
2023-11-24T13:59:55.838Z,88.83
2023-11-24T14:02:22.974Z,88.34
2023-11-24T14:04:51.321Z,88.46
2023-11-24T14:07:20.937Z,89.71
2023-11-24T14:09:47.626Z,88.76
2023-11-24T14:12:15.504Z,88.42
2023-11-24T14:14:42.728Z,88.94
2023-11-24T14:17:09.472Z,89.09
2023-11-24T14:19:36.576Z,88.51
2023-11-24T14:22:06.099Z,88.27
2023-11-24T14:24:34.009Z,88.07
2023-11-24T14:27:00.705Z,88.33
2023-11-24T14:29:29.322Z,88.18
2023-11-24T14:31:56.213Z,88.30
2023-11-24T14:34:22.811Z,88.01
2023-11-24T14:36:49.865Z,88.28
2023-11-24T14:39:32.802Z,88.91
2023-11-24T14:42:00.060Z,88.05
2023-11-24T14:44:27.017Z,88.43
2023-11-24T14:46:53.880Z,88.15
2023-11-24T14:49:20.620Z,86.92
2023-11-24T14:51:48.836Z,87.60
2023-11-24T14:54:17.178Z,86.77
2023-11-24T14:56:44.719Z,86.38
2023-11-24T14:59:12.054Z,86.42
2023-11-24T15:01:40.253Z,86.43
2023-11-24T15:04:16.816Z,86.28
2023-11-24T15:06:50.913Z,86.41
2023-11-24T15:09:17.804Z,86.25
2023-11-24T15:11:45.144Z,85.86
2023-11-24T15:14:15.942Z,85.07
2023-11-24T15:16:53.642Z,85.96
2023-11-24T15:19:23.158Z,85.58
2023-11-24T15:21:50.045Z,85.89
2023-11-24T15:24:16.694Z,86.03
2023-11-24T15:26:43.308Z,85.82
2023-11-24T15:29:11.120Z,86.50
2023-11-24T15:31:40.342Z,86.64
2023-11-24T15:34:07.267Z,86.25
2023-11-24T15:36:35.839Z,86.86
2023-11-24T15:39:05.033Z,87.01
2023-11-24T15:41:48.599Z,86.74
2023-11-24T15:44:24.021Z,86.88
2023-11-24T15:46:50.561Z,86.43
2023-11-24T15:49:19.164Z,87.28
2023-11-24T15:51:47.379Z,86.73
2023-11-24T15:54:18.560Z,86.95
2023-11-24T15:56:45.263Z,86.90
2023-11-24T15:59:13.655Z,86.51
2023-11-24T16:01:43.242Z,86.71
2023-11-24T16:04:11.902Z,86.91
2023-11-24T16:06:45.995Z,86.91
2023-11-24T16:09:13.539Z,87.61
2023-11-24T16:11:46.870Z,86.16
2023-11-24T16:14:14.163Z,86.30
2023-11-24T16:16:46.859Z,86.48
2023-11-24T16:19:15.155Z,87.36
2023-11-24T16:21:42.826Z,87.35
2023-11-24T16:24:09.551Z,86.84
2023-11-24T16:26:36.407Z,86.84
2023-11-24T16:29:04.615Z,86.63
2023-11-24T16:31:34.321Z,86.67
2023-11-24T16:34:02.460Z,87.05
2023-11-24T16:36:29.568Z,86.97
2023-11-24T16:38:56.097Z,86.33
2023-11-24T16:41:22.681Z,86.53
2023-11-24T16:43:49.238Z,86.93
2023-11-24T16:46:15.905Z,86.49
2023-11-24T16:48:42.527Z,86.82
2023-11-24T16:51:09.103Z,86.76
2023-11-24T16:53:35.671Z,86.89
2023-11-24T16:56:02.284Z,87.56
2023-11-24T16:58:28.885Z,87.31
2023-11-24T17:00:55.879Z,87.24
2023-11-24T17:03:22.628Z,88.15
2023-11-24T17:05:49.184Z,87.82
2023-11-24T17:08:15.748Z,87.81
2023-11-24T17:10:42.643Z,88.29
2023-11-24T17:13:09.596Z,88.10
2023-11-24T17:15:36.152Z,87.67
2023-11-24T17:18:05.220Z,87.56
2023-11-24T17:20:31.765Z,87.74
2023-11-24T17:22:58.408Z,87.35
2023-11-24T17:25:34.888Z,88.29
2023-11-24T17:28:03.638Z,88.06
2023-11-24T17:30:30.357Z,88.37
2023-11-24T17:32:56.880Z,88.46
2023-11-24T17:35:24.855Z,89.45
2023-11-24T17:37:52.254Z,89.50
2023-11-24T17:40:18.850Z,89.73
2023-11-24T17:42:45.629Z,90.20
2023-11-24T17:45:16.789Z,90.64
2023-11-24T17:47:44.078Z,90.18
2023-11-24T17:50:10.776Z,90.87
2023-11-24T17:52:40.417Z,90.58
2023-11-24T17:55:09.789Z,91.01
2023-11-24T17:57:37.189Z,90.76
2023-11-24T18:00:12.792Z,90.55
2023-11-24T18:02:39.550Z,91.17
2023-11-24T18:05:08.108Z,90.43
2023-11-24T18:07:35.523Z,91.00
2023-11-24T18:10:03.993Z,90.63
2023-11-24T18:12:31.538Z,90.50
2023-11-24T18:14:58.103Z,90.90
2023-11-24T18:17:24.740Z,91.56
2023-11-24T18:19:52.748Z,92.06
2023-11-24T18:22:19.438Z,92.58
2023-11-24T18:24:45.983Z,93.11
2023-11-24T18:27:13.563Z,93.55
2023-11-24T18:29:42.018Z,93.10
2023-11-24T18:32:12.862Z,93.70
2023-11-24T18:34:40.062Z,93.36
2023-11-24T18:37:06.762Z,93.63
2023-11-24T18:39:33.600Z,93.95
2023-11-24T18:42:00.193Z,93.96
2023-11-24T18:44:27.469Z,94.25
2023-11-24T18:46:54.092Z,94.24
2023-11-24T18:49:20.706Z,94.73
2023-11-24T18:51:48.128Z,94.88
2023-11-24T18:54:14.661Z,94.40
2023-11-24T18:56:41.613Z,94.71
2023-11-24T18:59:08.164Z,94.85
2023-11-24T19:01:35.199Z,94.65
2023-11-24T19:04:02.442Z,94.39
2023-11-24T19:06:29.816Z,94.49
2023-11-24T19:08:56.774Z,94.43
2023-11-24T19:11:26.561Z,94.40
2023-11-24T19:13:53.187Z,94.16
2023-11-24T19:16:19.781Z,94.53
2023-11-24T19:18:46.370Z,93.99
2023-11-24T19:21:14.580Z,94.40
2023-11-24T19:23:41.384Z,94.20
2023-11-24T19:26:12.847Z,94.36
2023-11-24T19:28:41.666Z,94.03
2023-11-24T19:31:11.539Z,94.51
2023-11-24T19:33:38.208Z,93.85
2023-11-24T19:36:05.544Z,94.03
2023-11-24T19:38:32.188Z,93.13
2023-11-24T19:40:59.022Z,93.97
2023-11-24T19:43:25.617Z,94.05
2023-11-24T19:45:52.289Z,94.05
2023-11-24T19:48:18.882Z,94.15
2023-11-24T19:50:45.380Z,94.40
2023-11-24T19:53:13.342Z,94.00
2023-11-24T19:55:39.894Z,94.21
2023-11-24T19:58:06.516Z,94.04
2023-11-24T20:00:33.057Z,93.24
2023-11-24T20:02:59.745Z,93.40
2023-11-24T20:05:28.386Z,94.32
2023-11-24T20:07:55.005Z,94.65
2023-11-24T20:10:21.707Z,95.14
2023-11-24T20:12:48.415Z,95.59
2023-11-24T20:15:15.035Z,96.04
2023-11-24T20:17:41.574Z,96.02
2023-11-24T20:20:09.874Z,96.23
2023-11-24T20:22:36.585Z,96.32
2023-11-24T20:25:05.255Z,96.71
2023-11-24T20:27:31.903Z,96.83
2023-11-24T20:29:58.826Z,97.16
2023-11-24T20:32:25.486Z,97.64
2023-11-24T20:34:52.684Z,97.34
2023-11-24T20:37:19.321Z,97.63
2023-11-24T20:39:46.601Z,97.98
2023-11-24T20:42:13.181Z,97.62
2023-11-24T20:44:39.682Z,97.78
2023-11-24T20:47:06.284Z,98.92
2023-11-24T20:49:32.933Z,98.42
2023-11-24T20:52:00.059Z,98.19
2023-11-24T20:54:26.787Z,98.14
2023-11-24T20:56:53.352Z,98.42
2023-11-24T20:59:19.873Z,98.39
2023-11-24T21:01:46.564Z,98.62
2023-11-24T21:04:13.332Z,98.68
2023-11-24T21:06:41.387Z,98.73
2023-11-24T21:09:11.138Z,98.94
2023-11-24T21:11:37.683Z,98.81
2023-11-24T21:14:04.209Z,98.91
2023-11-24T21:16:30.845Z,98.84
2023-11-24T21:18:57.381Z,99.30
2023-11-24T21:21:24.522Z,99.17
2023-11-24T21:23:51.039Z,99.11
2023-11-24T21:26:21.498Z,99.04
2023-11-24T21:28:49.455Z,99.01
2023-11-24T21:31:22.119Z,99.31
2023-11-24T21:33:49.865Z,99.18
2023-11-24T21:36:16.928Z,99.59
2023-11-24T21:38:46.367Z,99.50
2023-11-24T21:41:17.723Z,99.47
2023-11-24T21:43:44.415Z,99.52
2023-11-24T21:46:18.751Z,99.61
2023-11-24T21:48:45.339Z,99.95
2023-11-24T21:51:11.803Z,99.75
2023-11-24T21:53:40.780Z,99.74
2023-11-24T21:56:08.036Z,99.99
2023-11-24T21:58:35.449Z,99.94
2023-11-24T22:01:03.015Z,99.92
2023-11-24T22:03:29.739Z,99.93
2023-11-24T22:05:56.346Z,99.99
2023-11-24T22:08:22.904Z,99.99
2023-11-24T22:10:52.499Z,99.99
2023-11-24T22:13:19.151Z,99.99
2023-11-24T22:15:48.898Z,99.99
2023-11-24T22:18:15.643Z,99.99
2023-11-24T22:20:42.192Z,99.99
2023-11-24T22:23:09.704Z,99.99
2023-11-24T22:25:36.398Z,99.99
2023-11-24T22:28:02.991Z,99.99
2023-11-24T22:30:29.593Z,99.99
2023-11-24T22:32:56.214Z,99.99
2023-11-24T22:35:22.748Z,99.99
2023-11-24T22:37:49.354Z,99.99
2023-11-24T22:40:16.075Z,99.99
2023-11-24T22:42:43.246Z,99.99
2023-11-24T22:45:11.062Z,99.99
2023-11-24T22:47:39.554Z,99.99
2023-11-24T22:50:06.728Z,99.99
2023-11-24T22:52:34.096Z,99.99
2023-11-24T22:55:00.768Z,99.99
2023-11-24T22:57:28.182Z,99.99
2023-11-24T22:59:54.968Z,99.99
2023-11-24T23:02:21.998Z,99.99
2023-11-24T23:04:48.677Z,99.99
2023-11-24T23:07:16.738Z,99.99
2023-11-24T23:09:45.335Z,99.99
2023-11-24T23:12:12.162Z,99.99
2023-11-24T23:14:40.040Z,99.99
2023-11-24T23:17:07.294Z,99.99
2023-11-24T23:19:33.963Z,99.99
2023-11-24T23:22:02.941Z,99.99
2023-11-24T23:24:29.509Z,99.99
2023-11-24T23:26:56.017Z,99.99
2023-11-24T23:29:22.631Z,99.99
2023-11-24T23:31:49.353Z,99.99
2023-11-24T23:34:16.553Z,99.99
2023-11-24T23:36:43.519Z,99.99
2023-11-24T23:39:11.240Z,99.99
2023-11-24T23:41:37.999Z,99.99
2023-11-24T23:44:05.619Z,99.99
2023-11-24T23:46:32.319Z,99.99
2023-11-24T23:48:58.863Z,99.99
2023-11-24T23:51:25.865Z,99.99
2023-11-24T23:53:53.006Z,99.99
2023-11-24T23:56:20.373Z,99.99
2023-11-24T23:58:46.989Z,99.99
